Time;durP1;ratioP1;P1;durP2;ratioP2;P2;SDS_P1;SDS_P2;PMS_P1;PMS_P2;Temp;Humidity;BMP_temperature;BMP_pressure;BME280_temperature;BME280_humidity;BME280_pressure;Samples;Min_cycle;Max_cycle;Signal;HPM_P1;HPM_P2
2023/10/23 00:02:12;;;;;;;19.02;6.28;;;;;;;;;;5117120;28;20026;-72
2023/10/23 00:04:57;;;;;;;20.52;5.93;;;;;;;;;;5117031;28;20096;-71
2023/10/23 00:07:43;;;;;;;12.35;5.72;;;;;;;;;;5118175;27;20485;-71
2023/10/23 00:10:29;;;;;;;17.15;5.65;;;;;;;;;;5117003;28;20024;-71
2023/10/23 00:13:14;;;;;;;21.95;6.15;;;;;;;;;;5117740;28;20031;-71
2023/10/23 00:16:00;;;;;;;14.95;5.90;;;;;;;;;;5101024;28;20020;-71
2023/10/23 00:18:45;;;;;;;16.58;6.05;;;;;;;;;;5117475;28;20416;-72
2023/10/23 00:21:31;;;;;;;17.05;5.88;;;;;;;;;;5102363;28;20384;-71
2023/10/23 00:24:17;;;;;;;16.58;5.93;;;;;;;;;;5117277;28;20073;-71
2023/10/23 00:27:02;;;;;;;14.30;6.38;;;;;;;;;;5117248;28;20076;-71
2023/10/23 00:29:48;;;;;;;15.68;6.05;;;;;;;;;;5116849;28;20404;-71
2023/10/23 00:32:34;;;;;;;14.95;5.50;;;;;;;;;;5116673;28;20024;-71
2023/10/23 00:35:19;;;;;;;18.02;6.55;;;;;;;;;;5116784;28;20031;-71
2023/10/23 00:38:05;;;;;;;19.45;6.13;;;;;;;;;;5118128;27;20475;-71
2023/10/23 00:40:51;;;;;;;19.38;6.32;;;;;;;;;;5116717;28;20031;-71
2023/10/23 00:43:36;;;;;;;15.27;6.07;;;;;;;;;;5102362;28;20041;-71
2023/10/23 00:46:22;;;;;;;21.35;6.75;;;;;;;;;;5116902;28;20011;-72
2023/10/23 00:49:08;;;;;;;15.43;6.18;;;;;;;;;;5117163;28;20019;-71
2023/10/23 00:51:54;;;;;;;19.25;6.03;;;;;;;;;;5116826;28;20379;-71
2023/10/23 00:54:40;;;;;;;16.00;6.72;;;;;;;;;;5116104;28;20031;-71
2023/10/23 00:57:25;;;;;;;15.25;5.93;;;;;;;;;;5116452;28;20400;-71
2023/10/23 01:00:11;;;;;;;18.35;5.80;;;;;;;;;;5116088;28;20027;-71
2023/10/23 01:02:57;;;;;;;18.52;6.78;;;;;;;;;;5101834;28;20015;-72
2023/10/23 01:05:43;;;;;;;14.80;6.10;;;;;;;;;;5100818;28;20016;-72
2023/10/23 01:08:29;;;;;;;15.48;5.70;;;;;;;;;;5116607;28;20084;-72
2023/10/23 01:11:15;;;;;;;16.55;6.53;;;;;;;;;;5117016;27;20020;-72
2023/10/23 01:14:00;;;;;;;21.15;6.32;;;;;;;;;;5115791;28;20031;-71
2023/10/23 01:16:46;;;;;;;16.63;5.97;;;;;;;;;;5115190;28;20107;-72
2023/10/23 01:19:32;;;;;;;18.70;6.25;;;;;;;;;;5115472;28;20112;-71
2023/10/23 01:22:17;;;;;;;16.88;6.05;;;;;;;;;;5115597;28;20027;-71
2023/10/23 01:25:03;;;;;;;13.18;6.10;;;;;;;;;;5115733;28;20344;-71
2023/10/23 01:27:48;;;;;;;19.60;6.07;;;;;;;;;;5101867;28;20043;-70
2023/10/23 01:30:34;;;;;;;13.35;5.78;;;;;;;;;;5115117;28;20020;-72
2023/10/23 01:33:20;;;;;;;17.98;5.45;;;;;;;;;;5091650;28;20028;-72
2023/10/23 01:36:05;;;;;;;20.45;6.07;;;;;;;;;;5115762;28;20016;-72
2023/10/23 01:38:51;;;;;;;19.75;5.95;;;;;;;;;;5115076;28;20111;-72
2023/10/23 01:41:36;;;;;;;14.60;5.60;;;;;;;;;;5116575;28;20094;-71
2023/10/23 01:44:22;;;;;;;14.43;6.47;;;;;;;;;;5115049;28;20103;-71
2023/10/23 01:47:08;;;;;;;13.73;5.65;;;;;;;;;;5115128;28;20024;-71
2023/10/23 01:49:54;;;;;;;10.63;5.13;;;;;;;;;;5100165;28;20432;-72
2023/10/23 01:52:41;;;;;;;14.20;6.03;;;;;;;;;;5115020;28;20038;-71
2023/10/23 01:55:27;;;;;;;16.10;5.50;;;;;;;;;;5099992;28;20034;-72
2023/10/23 01:58:12;;;;;;;14.77;5.53;;;;;;;;;;5100275;28;20031;-71
2023/10/23 02:00:58;;;;;;;13.95;5.65;;;;;;;;;;5114842;28;20098;-71
2023/10/23 02:03:43;;;;;;;19.27;5.68;;;;;;;;;;5115046;28;20020;-72
2023/10/23 02:06:29;;;;;;;18.85;5.82;;;;;;;;;;5099516;28;20061;-72
2023/10/23 02:09:15;;;;;;;20.65;5.55;;;;;;;;;;5114492;28;20043;-71
2023/10/23 02:12:01;;;;;;;16.38;6.20;;;;;;;;;;5114852;28;20019;-72
2023/10/23 02:14:50;;;;;;;13.55;4.85;;;;;;;;;;5114629;28;20039;-72
2023/10/23 02:17:36;;;;;;;15.75;5.75;;;;;;;;;;5113946;28;20080;-72
2023/10/23 02:20:22;;;;;;;21.42;5.50;;;;;;;;;;5114882;28;20450;-71
2023/10/23 02:23:07;;;;;;;14.65;5.85;;;;;;;;;;5114241;28;20061;-71
2023/10/23 02:25:53;;;;;;;12.13;5.13;;;;;;;;;;5114502;28;20014;-72
2023/10/23 02:28:39;;;;;;;15.90;5.50;;;;;;;;;;5114260;28;20051;-73
2023/10/23 02:31:24;;;;;;;15.13;5.53;;;;;;;;;;5114686;28;20084;-72
2023/10/23 02:34:10;;;;;;;15.10;6.05;;;;;;;;;;5114405;28;20051;-72
2023/10/23 02:36:55;;;;;;;15.35;5.90;;;;;;;;;;5114093;28;20035;-73
2023/10/23 02:39:41;;;;;;;18.98;6.55;;;;;;;;;;5099433;28;20012;-71
2023/10/23 02:42:26;;;;;;;12.27;5.80;;;;;;;;;;5099099;28;20011;-72
2023/10/23 02:45:13;;;;;;;12.85;5.20;;;;;;;;;;5099580;28;20011;-71
2023/10/23 02:47:59;;;;;;;13.57;5.50;;;;;;;;;;5099442;28;20024;-71
2023/10/23 02:50:54;;;;;;;22.88;6.00;;;;;;;;;;5113592;28;20391;-71
2023/10/23 02:53:40;;;;;;;18.92;6.32;;;;;;;;;;5117444;28;20034;-70
2023/10/23 02:56:25;;;;;;;21.80;6.40;;;;;;;;;;5099455;28;20028;-71
2023/10/23 02:59:11;;;;;;;14.90;5.82;;;;;;;;;;5099659;28;20447;-71
2023/10/23 03:01:56;;;;;;;17.08;5.63;;;;;;;;;;5114485;28;20027;-70
2023/10/23 03:04:42;;;;;;;20.60;5.90;;;;;;;;;;5115979;28;20083;-72
2023/10/23 03:07:28;;;;;;;21.65;6.88;;;;;;;;;;5114901;28;20024;-71
2023/10/23 03:10:13;;;;;;;15.32;7.20;;;;;;;;;;5099546;28;20366;-72
2023/10/23 03:12:59;;;;;;;15.60;6.40;;;;;;;;;;5099743;28;20386;-71
2023/10/23 03:15:45;;;;;;;15.35;5.68;;;;;;;;;;5113883;28;20066;-72
2023/10/23 03:18:30;;;;;;;13.68;6.30;;;;;;;;;;5114543;28;20051;-71
2023/10/23 03:21:16;;;;;;;18.08;6.75;;;;;;;;;;5114809;28;20015;-72
2023/10/23 03:24:01;;;;;;;20.35;7.03;;;;;;;;;;5098949;28;20103;-72
2023/10/23 03:26:47;;;;;;;16.48;6.32;;;;;;;;;;5099533;28;20027;-72
2023/10/23 03:29:32;;;;;;;16.58;6.32;;;;;;;;;;5114895;28;20454;-72
2023/10/23 03:32:18;;;;;;;19.88;6.78;;;;;;;;;;5115176;28;20031;-73
2023/10/23 03:35:04;;;;;;;19.35;6.40;;;;;;;;;;5099499;28;20043;-72
2023/10/23 03:37:49;;;;;;;14.93;7.10;;;;;;;;;;5099317;28;20367;-72
2023/10/23 03:40:35;;;;;;;17.85;6.32;;;;;;;;;;5114228;28;20030;-72
2023/10/23 03:43:21;;;;;;;15.60;6.32;;;;;;;;;;5099402;28;20038;-72
2023/10/23 03:46:06;;;;;;;18.38;6.93;;;;;;;;;;5114689;28;20064;-71
2023/10/23 03:48:52;;;;;;;20.05;6.50;;;;;;;;;;5113807;28;20419;-70
2023/10/23 03:51:37;;;;;;;15.10;6.30;;;;;;;;;;5117064;28;20039;-71
2023/10/23 03:54:23;;;;;;;20.83;6.07;;;;;;;;;;5111077;28;20344;-69
2023/10/23 03:57:09;;;;;;;21.75;6.38;;;;;;;;;;5117428;28;20019;-72
2023/10/23 03:59:54;;;;;;;20.52;6.53;;;;;;;;;;5102775;28;20022;-68
2023/10/23 04:02:40;;;;;;;21.75;6.78;;;;;;;;;;5117940;28;20105;-67
2023/10/23 04:05:25;;;;;;;16.20;5.95;;;;;;;;;;5103103;28;20096;-69
2023/10/23 04:08:11;;;;;;;23.35;6.68;;;;;;;;;;5117569;28;20019;-68
2023/10/23 04:10:58;;;;;;;17.02;6.38;;;;;;;;;;5117250;28;20023;-69
2023/10/23 04:13:43;;;;;;;21.38;6.07;;;;;;;;;;5117268;28;20076;-68
2023/10/23 04:16:29;;;;;;;17.67;6.38;;;;;;;;;;5117226;28;20024;-68
2023/10/23 04:19:15;;;;;;;19.38;6.53;;;;;;;;;;5117597;28;20016;-68
2023/10/23 04:22:00;;;;;;;19.55;6.50;;;;;;;;;;5117645;28;20136;-68
2023/10/23 04:24:47;;;;;;;18.52;6.30;;;;;;;;;;5117959;28;20364;-68
2023/10/23 04:27:32;;;;;;;16.13;6.68;;;;;;;;;;5116717;28;20023;-69
2023/10/23 04:30:19;;;;;;;21.83;6.50;;;;;;;;;;5117494;28;20019;-68
2023/10/23 04:33:04;;;;;;;26.48;6.95;;;;;;;;;;5117602;28;20052;-69
2023/10/23 04:35:54;;;;;;;17.92;6.18;;;;;;;;;;5117263;28;20363;-68
2023/10/23 04:38:39;;;;;;;17.65;6.45;;;;;;;;;;5101950;28;20080;-69
2023/10/23 04:41:25;;;;;;;23.15;6.65;;;;;;;;;;5116879;28;20015;-68
2023/10/23 04:44:10;;;;;;;20.05;6.75;;;;;;;;;;5117295;28;20378;-68
2023/10/23 04:46:56;;;;;;;17.25;6.43;;;;;;;;;;5117599;28;20443;-68
2023/10/23 04:49:42;;;;;;;21.13;5.80;;;;;;;;;;5116983;28;20472;-68
2023/10/23 04:52:27;;;;;;;15.52;5.95;;;;;;;;;;5117490;27;20043;-68
2023/10/23 04:55:13;;;;;;;35.20;7.53;;;;;;;;;;5116879;28;20032;-69
2023/10/23 04:57:58;;;;;;;19.40;7.20;;;;;;;;;;5115868;28;20028;-68
2023/10/23 05:00:44;;;;;;;21.70;7.35;;;;;;;;;;5117000;28;20019;-68
2023/10/23 05:03:31;;;;;;;32.13;7.47;;;;;;;;;;5116832;28;20085;-68
2023/10/23 05:06:17;;;;;;;22.30;7.38;;;;;;;;;;5101455;28;20509;-68
2023/10/23 05:09:04;;;;;;;26.33;6.80;;;;;;;;;;5117517;28;20028;-68
2023/10/23 05:11:49;;;;;;;26.95;7.57;;;;;;;;;;5101117;28;20023;-68
2023/10/23 05:14:35;;;;;;;23.80;7.55;;;;;;;;;;5115971;28;20404;-68
2023/10/23 05:17:21;;;;;;;20.00;7.65;;;;;;;;;;5116704;28;20066;-68
2023/10/23 05:20:07;;;;;;;24.15;7.25;;;;;;;;;;5116248;28;20020;-68
2023/10/23 05:22:53;;;;;;;29.10;8.73;;;;;;;;;;5116995;28;20451;-69
2023/10/23 05:25:39;;;;;;;23.05;8.43;;;;;;;;;;5115708;28;20046;-68
2023/10/23 05:28:25;;;;;;;21.33;7.70;;;;;;;;;;5116204;28;20356;-71
2023/10/23 05:31:11;;;;;;;28.58;7.82;;;;;;;;;;5101031;28;20367;-71
2023/10/23 05:33:56;;;;;;;25.10;7.57;;;;;;;;;;5101155;28;20016;-72
2023/10/23 05:36:42;;;;;;;29.50;8.32;;;;;;;;;;5115508;28;20096;-71
2023/10/23 05:39:28;;;;;;;22.73;8.38;;;;;;;;;;5116013;28;20060;-71
2023/10/23 05:42:13;;;;;;;28.08;8.10;;;;;;;;;;5101144;28;20034;-72
2023/10/23 05:45:00;;;;;;;24.83;8.10;;;;;;;;;;5115429;28;20380;-72
2023/10/23 05:47:45;;;;;;;23.83;7.72;;;;;;;;;;5111240;28;20028;-73
2023/10/23 05:50:31;;;;;;;23.40;8.65;;;;;;;;;;5115593;27;20035;-74
2023/10/23 05:53:16;;;;;;;27.33;8.07;;;;;;;;;;5100039;28;20166;-73
2023/10/23 05:56:03;;;;;;;36.63;9.68;;;;;;;;;;5115899;28;20035;-73
2023/10/23 05:58:50;;;;;;;38.97;9.38;;;;;;;;;;5100419;28;20047;-73
2023/10/23 06:01:36;;;;;;;26.35;8.40;;;;;;;;;;5115562;28;20026;-73
2023/10/23 06:04:22;;;;;;;32.25;12.32;;;;;;;;;;5115358;28;20012;-73
2023/10/23 06:07:07;;;;;;;23.02;9.02;;;;;;;;;;5100984;28;20020;-73
2023/10/23 06:09:53;;;;;;;30.05;9.48;;;;;;;;;;5115782;28;20062;-72
2023/10/23 06:12:38;;;;;;;23.70;8.43;;;;;;;;;;5114959;28;20027;-72
2023/10/23 06:15:24;;;;;;;19.58;8.32;;;;;;;;;;5115151;28;20020;-71
2023/10/23 06:18:10;;;;;;;21.92;8.27;;;;;;;;;;5116809;28;20024;-73
2023/10/23 06:21:03;;;;;;;25.48;9.63;;;;;;;;;;5119436;28;20419;-72
2023/10/23 06:23:49;;;;;;;19.77;7.80;;;;;;;;;;5118664;28;20034;-72
2023/10/23 06:26:34;;;;;;;25.88;8.50;;;;;;;;;;5102003;28;20111;-74
2023/10/23 06:29:20;;;;;;;30.27;9.57;;;;;;;;;;5116706;28;20093;-72
2023/10/23 06:32:05;;;;;;;23.15;8.70;;;;;;;;;;5117267;28;20118;-74
2023/10/23 06:34:53;;;;;;;25.52;8.40;;;;;;;;;;5116693;28;20092;-73
2023/10/23 06:37:38;;;;;;;22.77;8.30;;;;;;;;;;5115463;28;20019;-72
2023/10/23 06:40:24;;;;;;;29.75;8.43;;;;;;;;;;5114781;28;20108;-72
2023/10/23 06:43:11;;;;;;;22.00;7.82;;;;;;;;;;5114602;28;20180;-72
2023/10/23 06:45:57;;;;;;;23.95;7.78;;;;;;;;;;5114239;28;20019;-71
2023/10/23 06:48:46;;;;;;;22.92;8.13;;;;;;;;;;5114061;28;20016;-73
2023/10/23 06:51:31;;;;;;;31.55;8.13;;;;;;;;;;5114614;28;20112;-73
2023/10/23 06:54:18;;;;;;;21.98;7.82;;;;;;;;;;5114488;28;20096;-73
2023/10/23 06:57:06;;;;;;;25.65;7.45;;;;;;;;;;5113758;28;20023;-72
2023/10/23 06:59:54;;;;;;;28.20;6.70;;;;;;;;;;5114106;28;20035;-72
2023/10/23 07:02:40;;;;;;;20.38;7.15;;;;;;;;;;5114241;28;20020;-72
2023/10/23 07:05:25;;;;;;;24.40;7.05;;;;;;;;;;5100448;28;20012;-71
2023/10/23 07:08:11;;;;;;;20.80;7.35;;;;;;;;;;5114689;28;20062;-73
2023/10/23 07:10:57;;;;;;;18.23;6.47;;;;;;;;;;5099502;28;20024;-72
2023/10/23 07:13:43;;;;;;;16.10;6.00;;;;;;;;;;5114691;28;20115;-74
2023/10/23 07:16:28;;;;;;;18.90;6.68;;;;;;;;;;5114793;28;20016;-72
2023/10/23 07:19:14;;;;;;;17.08;7.00;;;;;;;;;;5114980;28;20027;-72
2023/10/23 07:22:00;;;;;;;14.30;6.57;;;;;;;;;;5113715;28;20027;-72
2023/10/23 07:24:46;;;;;;;18.67;7.13;;;;;;;;;;5116372;28;20020;-73
2023/10/23 07:27:31;;;;;;;18.80;6.65;;;;;;;;;;5118715;28;20020;-73
2023/10/23 07:30:17;;;;;;;29.52;7.45;;;;;;;;;;5118358;28;20505;-76
2023/10/23 07:33:03;;;;;;;23.45;6.53;;;;;;;;;;5117816;28;20084;-74
2023/10/23 07:35:48;;;;;;;17.73;7.55;;;;;;;;;;5117694;28;20442;-74
2023/10/23 07:38:35;;;;;;;22.15;7.78;;;;;;;;;;5118313;28;20108;-74
2023/10/23 07:41:20;;;;;;;35.70;8.23;;;;;;;;;;5116794;28;20023;-72
2023/10/23 07:44:06;;;;;;;17.52;7.82;;;;;;;;;;5118693;28;20016;-73
2023/10/23 07:46:52;;;;;;;20.63;7.35;;;;;;;;;;5118810;28;20034;-73
2023/10/23 07:49:38;;;;;;;19.70;6.88;;;;;;;;;;5117693;28;20428;-74
2023/10/23 07:52:23;;;;;;;21.17;8.30;;;;;;;;;;5104015;28;20548;-74
2023/10/23 07:55:09;;;;;;;30.02;9.68;;;;;;;;;;5118527;28;20038;-73
2023/10/23 07:57:54;;;;;;;19.40;9.93;;;;;;;;;;5118986;27;20035;-74
2023/10/23 08:00:40;;;;;;;19.55;10.00;;;;;;;;;;5102916;28;20017;-73
2023/10/23 08:03:25;;;;;;;27.25;9.32;;;;;;;;;;5117545;28;20015;-74
2023/10/23 08:06:11;;;;;;;19.80;9.23;;;;;;;;;;5118055;28;20043;-74
2023/10/23 08:08:57;;;;;;;21.02;9.63;;;;;;;;;;5103802;28;20008;-74
2023/10/23 08:11:42;;;;;;;23.65;9.82;;;;;;;;;;5118494;28;20027;-73
2023/10/23 08:14:28;;;;;;;29.48;8.68;;;;;;;;;;5118406;28;20022;-74
2023/10/23 08:17:13;;;;;;;22.83;9.68;;;;;;;;;;5117318;28;20409;-74
2023/10/23 08:19:59;;;;;;;19.75;9.23;;;;;;;;;;5103142;28;20367;-74
2023/10/23 08:22:45;;;;;;;20.33;8.65;;;;;;;;;;5118577;28;20110;-74
2023/10/23 08:25:31;;;;;;;22.02;8.95;;;;;;;;;;5117927;28;20019;-73
2023/10/23 08:28:17;;;;;;;23.95;10.32;;;;;;;;;;5117625;28;20045;-74
2023/10/23 08:31:03;;;;;;;26.00;10.55;;;;;;;;;;5103445;28;20084;-73
2023/10/23 08:33:48;;;;;;;20.67;10.88;;;;;;;;;;5117524;28;20037;-73
2023/10/23 08:36:34;;;;;;;28.55;11.63;;;;;;;;;;5118400;27;20030;-74
2023/10/23 08:39:20;;;;;;;32.40;12.25;;;;;;;;;;5116851;28;20116;-74
2023/10/23 08:42:05;;;;;;;25.13;12.85;;;;;;;;;;5103007;28;20325;-74
2023/10/23 08:44:51;;;;;;;27.10;15.25;;;;;;;;;;5118737;27;20419;-73
2023/10/23 08:47:37;;;;;;;25.05;14.18;;;;;;;;;;5117140;28;20098;-74
2023/10/23 08:50:23;;;;;;;36.58;15.45;;;;;;;;;;5117734;27;20022;-73
2023/10/23 08:53:10;;;;;;;31.95;16.58;;;;;;;;;;5117146;28;20081;-74
2023/10/23 08:55:56;;;;;;;32.10;15.32;;;;;;;;;;5102116;28;20454;-75
2023/10/23 08:58:44;;;;;;;32.35;15.73;;;;;;;;;;5117722;28;20020;-73
2023/10/23 09:01:30;;;;;;;31.90;15.98;;;;;;;;;;5117289;28;20376;-74
2023/10/23 09:04:15;;;;;;;31.42;16.40;;;;;;;;;;5101947;28;20439;-74
2023/10/23 09:07:01;;;;;;;33.78;17.02;;;;;;;;;;5117571;28;20085;-73
2023/10/23 09:09:47;;;;;;;28.00;16.17;;;;;;;;;;5116665;28;20054;-74
2023/10/23 09:12:33;;;;;;;28.80;15.73;;;;;;;;;;5095991;28;20078;-73
2023/10/23 09:15:21;;;;;;;32.38;16.27;;;;;;;;;;5115716;28;20264;-73
2023/10/23 09:18:08;;;;;;;32.00;16.55;;;;;;;;;;5116892;27;20092;-72
2023/10/23 09:20:54;;;;;;;36.15;17.10;;;;;;;;;;5115828;28;20409;-73
2023/10/23 09:23:50;;;;;;;57.70;17.10;;;;;;;;;;5115910;28;20028;-73
2023/10/23 09:26:36;;;;;;;30.75;16.92;;;;;;;;;;5117177;28;20039;-73
2023/10/23 09:29:24;;;;;;;34.63;16.55;;;;;;;;;;5119646;27;20024;-73
2023/10/23 09:32:10;;;;;;;32.63;15.57;;;;;;;;;;5117217;27;20032;-74
2023/10/23 09:34:56;;;;;;;29.58;16.50;;;;;;;;;;5102065;28;20099;-74
2023/10/23 09:37:41;;;;;;;30.45;15.85;;;;;;;;;;5115002;28;20032;-74
2023/10/23 09:40:29;;;;;;;32.08;14.93;;;;;;;;;;5116874;27;20313;-73
2023/10/23 09:43:14;;;;;;;29.45;14.77;;;;;;;;;;5116350;28;20015;-74
2023/10/23 09:46:00;;;;;;;37.55;15.07;;;;;;;;;;5116032;28;20080;-73
2023/10/23 09:48:46;;;;;;;31.73;14.45;;;;;;;;;;5103071;28;20030;-73
2023/10/23 09:51:41;;;;;;;26.30;14.25;;;;;;;;;;5117094;27;20127;-73
2023/10/23 09:54:30;;;;;;;23.80;13.50;;;;;;;;;;5100347;28;20023;-75
2023/10/23 09:57:17;;;;;;;31.70;14.20;;;;;;;;;;5116307;28;20031;-76
2023/10/23 10:00:16;;;;;;;31.25;15.25;;;;;;;;;;5114350;28;20396;-75
2023/10/23 10:03:05;;;;;;;29.70;15.68;;;;;;;;;;5101574;28;20031;-75
2023/10/23 10:05:57;;;;;;;33.72;15.88;;;;;;;;;;5115655;28;20098;-75
2023/10/23 10:08:48;;;;;;;33.08;16.00;;;;;;;;;;5115756;28;20119;-75
2023/10/23 10:11:34;;;;;;;31.33;16.10;;;;;;;;;;5115341;28;20028;-75
2023/10/23 10:14:20;;;;;;;30.27;17.33;;;;;;;;;;5115427;28;20456;-74
2023/10/23 10:17:06;;;;;;;30.65;16.27;;;;;;;;;;5116262;28;20084;-75
2023/10/23 10:19:52;;;;;;;31.70;16.45;;;;;;;;;;5114711;28;20030;-75
2023/10/23 10:22:42;;;;;;;37.55;17.63;;;;;;;;;;5101735;28;20020;-76
2023/10/23 10:25:28;;;;;;;30.67;17.17;;;;;;;;;;5102543;28;20046;-75
2023/10/23 10:28:14;;;;;;;31.80;16.33;;;;;;;;;;5099933;28;20024;-74
2023/10/23 10:31:00;;;;;;;36.13;16.73;;;;;;;;;;5114796;28;20059;-75
2023/10/23 10:33:51;;;;;;;26.13;15.00;;;;;;;;;;5100748;28;20035;-73
2023/10/23 10:36:37;;;;;;;28.67;15.13;;;;;;;;;;5114404;28;20082;-74
2023/10/23 10:39:42;;;;;;;24.77;13.88;;;;;;;;;;5100313;28;20016;-73
2023/10/23 10:42:29;;;;;;;27.98;13.23;;;;;;;;;;5114855;28;20030;-74
2023/10/23 10:45:15;;;;;;;23.40;13.25;;;;;;;;;;5115059;28;20103;-74
2023/10/23 10:48:02;;;;;;;24.15;12.30;;;;;;;;;;5114410;28;20096;-74
2023/10/23 10:50:48;;;;;;;22.33;10.68;;;;;;;;;;5114663;28;20044;-74
2023/10/23 10:53:37;;;;;;;22.73;10.68;;;;;;;;;;5114939;28;20027;-75
2023/10/23 10:56:22;;;;;;;25.55;10.85;;;;;;;;;;5114759;28;20035;-74
2023/10/23 10:59:08;;;;;;;23.80;10.18;;;;;;;;;;5119342;28;20443;-75
2023/10/23 11:01:54;;;;;;;25.35;10.60;;;;;;;;;;5123266;27;20080;-75
2023/10/23 11:04:40;;;;;;;26.52;10.13;;;;;;;;;;5122511;28;20087;-75
2023/10/23 11:07:26;;;;;;;23.70;11.48;;;;;;;;;;5120003;28;20459;-74
2023/10/23 11:10:12;;;;;;;23.67;10.07;;;;;;;;;;5121732;28;20114;-75
2023/10/23 11:12:58;;;;;;;18.25;9.55;;;;;;;;;;5121718;28;20052;-77
2023/10/23 11:15:44;;;;;;;33.72;10.68;;;;;;;;;;5122119;28;20012;-74
2023/10/23 11:18:30;;;;;;;16.17;9.48;;;;;;;;;;5122171;28;20462;-76
2023/10/23 11:21:22;;;;;;;19.98;9.73;;;;;;;;;;5120918;28;20054;-75
2023/10/23 11:24:07;;;;;;;22.50;9.70;;;;;;;;;;5105434;28;20023;-76
2023/10/23 11:26:53;;;;;;;20.05;8.57;;;;;;;;;;5120732;28;20440;-75
2023/10/23 11:29:39;;;;;;;19.13;8.93;;;;;;;;;;5121355;28;20028;-75
2023/10/23 11:32:27;;;;;;;27.00;9.57;;;;;;;;;;5120858;28;20495;-76
2023/10/23 11:35:12;;;;;;;25.20;8.98;;;;;;;;;;5121086;28;20035;-76
2023/10/23 11:37:59;;;;;;;25.50;8.73;;;;;;;;;;5109224;28;20076;-75
2023/10/23 11:40:45;;;;;;;25.40;8.60;;;;;;;;;;5122600;27;20020;-75
2023/10/23 11:43:33;;;;;;;22.45;9.07;;;;;;;;;;5122564;27;20044;-78
2023/10/23 11:46:19;;;;;;;23.58;8.80;;;;;;;;;;5112168;28;20454;-75
2023/10/23 11:49:05;;;;;;;18.15;8.50;;;;;;;;;;5121298;28;20402;-75
2023/10/23 11:51:55;;;;;;;21.88;8.48;;;;;;;;;;5120945;27;20075;-76
2023/10/23 11:54:40;;;;;;;25.80;9.15;;;;;;;;;;5121372;28;20057;-76
2023/10/23 11:57:26;;;;;;;20.05;9.10;;;;;;;;;;5106820;28;20063;-75
2023/10/23 12:00:12;;;;;;;20.17;9.30;;;;;;;;;;5121514;28;20012;-76
2023/10/23 12:02:58;;;;;;;22.70;9.02;;;;;;;;;;5120184;28;20052;-75
2023/10/23 12:05:44;;;;;;;20.42;9.35;;;;;;;;;;5121910;28;20024;-76
2023/10/23 12:08:30;;;;;;;20.38;9.10;;;;;;;;;;5106885;28;20012;-75
2023/10/23 12:11:17;;;;;;;27.70;9.65;;;;;;;;;;5105831;28;20096;-74
2023/10/23 12:14:03;;;;;;;25.85;10.27;;;;;;;;;;5116920;28;20370;-73
2023/10/23 12:16:49;;;;;;;19.70;9.55;;;;;;;;;;5110012;28;20409;-74
2023/10/23 12:19:34;;;;;;;19.63;9.32;;;;;;;;;;5116543;28;20022;-74
2023/10/23 12:22:20;;;;;;;23.02;9.20;;;;;;;;;;5104111;28;20024;-74
2023/10/23 12:25:06;;;;;;;27.48;10.02;;;;;;;;;;5118466;28;20016;-76
2023/10/23 12:27:51;;;;;;;21.15;9.90;;;;;;;;;;5119674;28;20098;-74
2023/10/23 12:30:37;;;;;;;17.85;9.40;;;;;;;;;;5116447;28;20011;-75
2023/10/23 12:33:25;;;;;;;24.00;9.05;;;;;;;;;;5102529;28;20031;-73
2023/10/23 12:36:11;;;;;;;25.70;9.80;;;;;;;;;;5117054;28;20055;-74
2023/10/23 12:38:56;;;;;;;24.20;8.77;;;;;;;;;;5116722;28;20400;-72
2023/10/23 12:41:42;;;;;;;22.63;10.38;;;;;;;;;;5116333;28;20019;-73
2023/10/23 12:44:27;;;;;;;25.40;10.63;;;;;;;;;;5116375;28;20038;-74
2023/10/23 12:47:13;;;;;;;20.58;10.52;;;;;;;;;;5116041;28;20019;-75
2023/10/23 12:49:59;;;;;;;24.90;9.38;;;;;;;;;;5116379;28;20084;-76
2023/10/23 12:52:45;;;;;;;18.15;8.57;;;;;;;;;;5116366;28;20051;-74
2023/10/23 12:55:31;;;;;;;20.63;9.27;;;;;;;;;;5100460;28;20025;-71
2023/10/23 12:58:16;;;;;;;24.17;9.40;;;;;;;;;;5116005;28;20112;-73
2023/10/23 13:01:02;;;;;;;18.45;8.98;;;;;;;;;;5116082;28;20459;-74
2023/10/23 13:03:47;;;;;;;23.27;9.15;;;;;;;;;;5116817;28;20023;-73
2023/10/23 13:06:33;;;;;;;22.92;8.55;;;;;;;;;;5095348;28;20020;-74
2023/10/23 13:09:19;;;;;;;22.25;9.13;;;;;;;;;;5082206;28;20026;-74
2023/10/23 13:12:05;;;;;;;18.25;8.00;;;;;;;;;;5095655;28;20024;-73
2023/10/23 13:14:50;;;;;;;19.67;8.32;;;;;;;;;;5096265;28;20398;-72
2023/10/23 13:17:36;;;;;;;16.20;7.50;;;;;;;;;;5096044;28;20107;-73
2023/10/23 13:20:22;;;;;;;14.73;6.70;;;;;;;;;;5095762;28;20016;-72
2023/10/23 13:23:07;;;;;;;22.00;7.22;;;;;;;;;;5093758;28;20093;-71
2023/10/23 13:25:53;;;;;;;16.77;5.93;;;;;;;;;;5095430;28;20459;-71
2023/10/23 13:28:38;;;;;;;16.80;5.50;;;;;;;;;;5095846;28;20066;-71
2023/10/23 13:31:27;;;;;;;12.93;6.00;;;;;;;;;;5096121;28;20051;-71
2023/10/23 13:34:12;;;;;;;17.63;6.03;;;;;;;;;;5095441;28;20032;-72
2023/10/23 13:36:58;;;;;;;14.85;6.00;;;;;;;;;;5080607;28;20070;-72
2023/10/23 13:39:44;;;;;;;16.65;5.72;;;;;;;;;;5093784;28;20016;-71
2023/10/23 13:42:29;;;;;;;11.77;5.38;;;;;;;;;;5094464;28;20035;-72
2023/10/23 13:45:15;;;;;;;12.02;5.40;;;;;;;;;;5095831;28;20091;-73
2023/10/23 13:48:01;;;;;;;15.52;5.20;;;;;;;;;;5095303;28;20023;-72
2023/10/23 13:50:50;;;;;;;21.05;5.30;;;;;;;;;;5080055;28;20113;-72
2023/10/23 13:53:36;;;;;;;12.10;5.05;;;;;;;;;;5094422;28;20428;-71
2023/10/23 13:56:22;;;;;;;12.75;5.57;;;;;;;;;;5095074;28;20035;-72
2023/10/23 13:59:08;;;;;;;12.52;4.93;;;;;;;;;;5094127;28;20031;-72
2023/10/23 14:01:54;;;;;;;13.20;5.07;;;;;;;;;;5096097;28;20019;-71
2023/10/23 14:04:39;;;;;;;15.45;5.10;;;;;;;;;;5088869;28;20089;-72
2023/10/23 14:07:25;;;;;;;13.77;5.15;;;;;;;;;;5096091;28;20103;-73
2023/10/23 14:10:11;;;;;;;14.88;5.25;;;;;;;;;;5098206;28;20020;-73
2023/10/23 14:12:57;;;;;;;12.77;5.00;;;;;;;;;;5093546;28;20081;-73
2023/10/23 14:15:42;;;;;;;11.23;5.18;;;;;;;;;;5080000;28;20016;-73
2023/10/23 14:18:28;;;;;;;13.57;4.68;;;;;;;;;;5115133;28;20089;-74
2023/10/23 14:21:13;;;;;;;15.30;4.97;;;;;;;;;;5099618;28;20516;-73
2023/10/23 14:23:59;;;;;;;16.67;4.82;;;;;;;;;;5101208;28;20037;-74
2023/10/23 14:26:44;;;;;;;15.40;5.40;;;;;;;;;;5114400;28;20470;-73
2023/10/23 14:29:31;;;;;;;18.90;5.35;;;;;;;;;;5114212;28;20024;-74
2023/10/23 14:32:17;;;;;;;10.48;4.22;;;;;;;;;;5100300;28;20504;-74
2023/10/23 14:35:03;;;;;;;19.17;5.35;;;;;;;;;;5114403;28;20028;-74
2023/10/23 14:37:49;;;;;;;13.13;5.20;;;;;;;;;;5114634;28;20023;-73
2023/10/23 14:40:34;;;;;;;16.33;5.57;;;;;;;;;;5100040;28;20106;-75
2023/10/23 14:43:20;;;;;;;14.18;4.68;;;;;;;;;;5113981;28;20031;-75
2023/10/23 14:46:11;;;;;;;22.75;5.90;;;;;;;;;;5114268;28;20119;-75
2023/10/23 14:48:56;;;;;;;13.45;5.00;;;;;;;;;;5100030;28;20031;-75
2023/10/23 14:51:43;;;;;;;16.25;4.93;;;;;;;;;;5114460;28;20043;-76
2023/10/23 14:54:29;;;;;;;15.70;5.18;;;;;;;;;;5100505;28;20091;-76
2023/10/23 14:57:15;;;;;;;14.98;4.38;;;;;;;;;;5100875;28;20114;-73
2023/10/23 15:00:00;;;;;;;11.13;5.32;;;;;;;;;;5115714;28;20538;-74
2023/10/23 15:02:47;;;;;;;11.90;4.43;;;;;;;;;;5117071;28;20016;-75
2023/10/23 15:05:33;;;;;;;14.68;5.72;;;;;;;;;;5097469;28;20080;-74
2023/10/23 15:08:18;;;;;;;17.02;5.18;;;;;;;;;;5114999;28;20497;-74
2023/10/23 15:11:04;;;;;;;19.58;5.93;;;;;;;;;;5099206;28;20080;-74
2023/10/23 15:13:50;;;;;;;17.80;5.38;;;;;;;;;;5100673;28;20039;-73
2023/10/23 15:16:37;;;;;;;14.93;5.50;;;;;;;;;;5114110;28;20020;-72
2023/10/23 15:19:23;;;;;;;15.82;5.32;;;;;;;;;;5114420;28;20089;-75
2023/10/23 15:22:08;;;;;;;12.73;4.93;;;;;;;;;;5115115;28;20085;-75
2023/10/23 15:24:54;;;;;;;13.00;5.47;;;;;;;;;;5099612;28;20020;-76
2023/10/23 15:27:40;;;;;;;14.80;5.45;;;;;;;;;;5116375;28;20023;-76
2023/10/23 15:30:25;;;;;;;14.23;5.05;;;;;;;;;;5114787;28;20394;-75
2023/10/23 15:33:11;;;;;;;17.60;5.30;;;;;;;;;;5115568;28;20544;-74
2023/10/23 15:35:57;;;;;;;12.68;6.03;;;;;;;;;;5114415;28;20039;-74
2023/10/23 15:38:43;;;;;;;17.17;5.25;;;;;;;;;;5116779;28;20019;-75
2023/10/23 15:41:29;;;;;;;10.15;5.38;;;;;;;;;;5113314;28;20019;-75
2023/10/23 15:44:16;;;;;;;14.05;5.80;;;;;;;;;;5100955;28;20019;-75
2023/10/23 15:47:02;;;;;;;13.43;5.53;;;;;;;;;;5119713;28;20055;-75
2023/10/23 15:49:48;;;;;;;13.82;5.70;;;;;;;;;;5118436;28;20440;-75
2023/10/23 15:52:34;;;;;;;16.63;6.00;;;;;;;;;;5104084;28;20035;-75
2023/10/23 15:55:19;;;;;;;17.83;6.03;;;;;;;;;;5118360;28;20038;-74
2023/10/23 15:58:05;;;;;;;15.48;6.18;;;;;;;;;;5117592;28;20016;-76
2023/10/23 16:00:51;;;;;;;19.73;6.18;;;;;;;;;;5116400;28;20117;-78
2023/10/23 16:03:37;;;;;;;15.80;7.03;;;;;;;;;;5103893;28;20027;-74
2023/10/23 16:06:23;;;;;;;16.40;6.38;;;;;;;;;;5110967;28;20025;-77
2023/10/23 16:09:08;;;;;;;24.67;6.60;;;;;;;;;;5117474;28;20027;-79
2023/10/23 16:11:54;;;;;;;17.88;6.88;;;;;;;;;;5096402;28;20092;-79
2023/10/23 16:14:40;;;;;;;18.33;6.97;;;;;;;;;;5098872;28;20102;-78
2023/10/23 16:17:26;;;;;;;20.38;7.00;;;;;;;;;;5098380;28;20035;-78
2023/10/23 16:20:12;;;;;;;20.65;6.47;;;;;;;;;;5098390;28;20110;-79